Thursday, March 21, 2019, 4:24 PM EDT
Back to Local

KPHL, Philadelphia International Airpt

Location: Philadelphia, PA, United States Lat: 39.867
Local Time: 4:24 PM EDT (20:24 GMT) Lon: -75.233
Time Zone: US/Eastern Elev: 19 ft

Show me the last for .
Show Decoded

2019-03-21 15:54 METAR KPHL 211954Z 10016KT 5SM -RA BR OVC014 10/08 A2980 RMK AO2 SLP090 P0002
                 T01000083 $ =
2019-03-21 15:48 METAR KPHL 211948Z 10013KT 6SM -RA BR OVC014 11/08 A2980 RMK AO2 P0001 VISNO W $
                 =
2019-03-21 14:54 METAR KPHL 211854Z 11013KT 9SM -RA OVC010 11/09 A2985 RMK AO2 SLP107 P0002
                 T01060089 $ =
2019-03-21 13:54 METAR KPHL 211754Z 10011KT 7SM -RA OVC011 10/09 A2990 RMK AO2 SLP124 P0007 60028
                 T01000089 10100 20072 56034 =
2019-03-21 13:08 METAR KPHL 211708Z 10011KT 5SM -RA BR OVC011 10/09 A2993 RMK AO2 P0001 T01000089
                 =
2019-03-21 12:54 METAR KPHL 211654Z 09010KT 8SM -RA OVC009 10/08 A2993 RMK AO2 SLP136 P0004
                 T01000083 =
2019-03-21 12:38 METAR KPHL 211638Z 08007KT 7SM -RA OVC009 09/08 A2994 RMK AO2 P0003 T00940083 =
2019-03-21 11:54 METAR KPHL 211554Z 07011KT 6SM -RA BR OVC009 09/08 A2996 RMK AO2 SLP143 P0003
                 T00940083 =
2019-03-21 11:23 METAR KPHL 211523Z 07010KT 5SM -RA BR OVC008 09/08 A2998 RMK AO2 P0001 T00890078
                 =
2019-03-21 10:54 METAR KPHL 211454Z 07012KT 8SM -RA OVC009 08/07 A3000 RMK AO2 SLP157 P0005 60014
                 T00830072 58024 =
2019-03-21 10:45 METAR KPHL 211445Z 07011KT 7SM -RA OVC009 08/07 A3000 RMK AO2 P0004 T00830072 =
2019-03-21 09:54 METAR KPHL 211354Z 08010KT 6SM -RA BR BKN009 OVC022 08/07 A3003 RMK AO2 SLP167
                 P0003 T00780067 =
2019-03-21 09:46 METAR KPHL 211346Z 08010KT 7SM -RA BKN009 OVC022 08/07 A3003 RMK AO2 P0002
                 T00780067 =
2019-03-21 09:23 METAR KPHL 211323Z 07010KT 6SM -RA BR BKN011 OVC022 07/06 A3003 RMK AO2 P0001
                 T00720061 =
2019-03-21 09:19 METAR KPHL 211319Z 07010KT 7SM -RA BKN012 OVC020 07/06 A3004 RMK AO2 P0001
                 T00720061 =
2019-03-21 09:08 METAR KPHL 211308Z 07009KT 8SM -RA SCT012 BKN020 OVC055 07/06 A3004 RMK AO2
                 P0001 T00720061 =
2019-03-21 08:54 METAR KPHL 211254Z 07010KT 5SM -RA BR FEW009 BKN020 OVC033 07/06 A3004 RMK AO2
                 SLP173 P0006 T00720061 =
2019-03-21 08:11 METAR KPHL 211211Z 07009KT 5SM -RA BR SCT009 BKN020 OVC050 07/06 A3007 RMK AO2
                 P0002 T00720056 =
2019-03-21 07:54 METAR KPHL 211154Z 08010KT 8SM -RA SCT009 BKN020 OVC045 07/06 A3007 RMK AO2
                 SLP181 P0003 60011 70011 T00720056 10072 20061 56020 =
2019-03-21 07:30 METAR KPHL 211130Z 07008KT 8SM -RA SCT009 BKN020 OVC045 07/06 A3008 RMK AO2
                 P0003 T00670056 =
2019-03-21 07:03 METAR KPHL 211103Z 06007KT 5SM -RA BR SCT009 BKN020 OVC035 07/05 A3008 RMK AO2
                 P0001 T00670050 =
2019-03-21 06:54 METAR KPHL 211054Z 08007KT 7SM -RA SCT009 BKN020 OVC035 07/05 A3009 RMK AO2
                 RAB02E41B52 SLP188 P0001 T00670050 =
2019-03-21 06:42 METAR KPHL 211042Z 07006KT 8SM SCT009 BKN020 OVC040 07/05 A3009 RMK AO2 RAB02E41
                 P0001 T00670050 $ =
2019-03-21 06:28 METAR KPHL 211028Z 07007KT 6SM -RA BR SCT008 OVC020 07/05 A3009 RMK AO2 RAB02
                 P0001 T00670050 $ =
2019-03-21 06:15 METAR KPHL 211015Z 07008KT 10SM -RA SCT009 OVC020 07/05 A3009 RMK AO2 RAB02
                 P0000 T00670050 $ =
2019-03-21 05:54 METAR KPHL 210954Z 06006KT 9SM OVC020 07/05 A3010 RMK AO2 RAE51 SLP191 P0002
                 T00670050 $ =
2019-03-21 05:22 METAR KPHL 210922Z 07006KT 8SM -RA BKN019 OVC028 06/05 A3011 RMK AO2 P0002
                 T00610050 $ =
2019-03-21 05:07 METAR KPHL 210907Z 06005KT 6SM RA BR BKN021 OVC039 06/05 A3012 RMK AO2 P0001
                 T00610050 $ =
2019-03-21 04:54 METAR KPHL 210854Z 07007KT 5SM -RA BR BKN017 OVC025 06/05 A3013 RMK AO2 SLP201
                 P0003 60005 T00610050 58024 $ =
2019-03-21 04:01 METAR KPHL 210801Z 08007KT 5SM -RA BR BKN020 BKN030 OVC040 06/04 A3015 RMK AO2
                 P0000 T00610044 $ =
2019-03-21 03:54 METAR KPHL 210754Z 08007KT 5SM -RA BR SCT021 OVC030 06/04 A3015 RMK AO2 SLP209
                 P0002 T00610044 $ =
2019-03-21 03:42 METAR KPHL 210742Z 07005KT 5SM -RA BR SCT020 OVC032 06/04 A3016 RMK AO2 P0001
                 T00610039 $ =
2019-03-21 03:34 METAR KPHL 210734Z 07003KT 7SM -RA SCT026 OVC034 07/04 A3017 RMK AO2 P0000
                 T00670039 $ =
2019-03-21 02:54 METAR KPHL 210654Z 09008KT 10SM -RA SCT024 BKN044 OVC060 07/02 A3018 RMK AO2
                 RAB48 SLP219 P0000 T00720022 $ =
2019-03-21 01:54 METAR KPHL 210554Z 09007KT 10SM SCT055 BKN100 BKN180 07/02 A3020 RMK AO2 SLP226
                 60000 T00720017 10083 20061 58024 $ =
2019-03-21 00:54 METAR KPHL 210454Z 06003KT 10SM BKN033 OVC045 07/01 A3023 RMK AO2 RAB42E52
                 SLP237 P0000 T00670011 401221006 $ =
2019-03-20 23:54 METAR KPHL 210354Z 11007KT 10SM BKN040 BKN055 OVC090 07/00 A3026 RMK AO2 SLP247
                 T00720000 $ =
2019-03-20 22:54 METAR KPHL 210254Z 12006KT 10SM BKN038 OVC050 07/00 A3027 RMK AO2 SLP250
                 T00720000 58003 $ =
2019-03-20 21:54 METAR KPHL 210154Z 11006KT 10SM BKN040 OVC050 07/M01 A3028 RMK AO2 SLP252
                 T00721006 $ =
2019-03-20 20:54 METAR KPHL 210054Z 14009KT 10SM BKN045 BKN130 OVC250 08/M01 A3029 RMK AO2 SLP255
                 T00781006 $ =
2019-03-20 19:54 METAR KPHL 202354Z 14009KT 10SM BKN130 OVC260 08/M01 A3028 RMK AO2 SLP254
                 T00831006 10122 20083 50001 $ =
2019-03-20 18:54 METAR KPHL 202254Z 15010KT 10SM BKN120 OVC260 09/M02 A3029 RMK AO2 SLP255
                 T00891017 $ =
2019-03-20 17:54 METAR KPHL 202154Z 17010KT 10SM BKN160 OVC260 11/M04 A3028 RMK AO2 SLP252
                 T01061044 $ =
2019-03-20 16:54 METAR KPHL 202054Z 15009KT 10SM SCT180 BKN280 11/M08 A3028 RMK AO2 SLP253
                 T01111078 56024 $ =

Support USWX by starting your Amazon purchase here.